Terminal Aerodrome Forecast
Issued by NWS

Home | Current Version | Previous Version | Text Only | Print | Product List | Glossary On
Versions: 1 2 3 4 5 6 7 8 9 10 11 12 13
000
FTUS41 KCAR 182320
TAFPQI
TAF
KPQI 182320Z 1900/1924 07004KT P6SM OVC100
     FM190300 02004KT P6SM -RASN SCT025 OVC040
     FM190800 32006KT P6SM SCT050
     FM191400 32012G20KT P6SM FEW050 SCT200
      AMD LTD TO CLD VIS AND WIND=

USA.gov is the U.S. government's official web portal to all federal, state and local government web resources and services.